sensor_id;sensor_type;location;lat;lon;timestamp;P1;durP1;ratioP1;P2;durP2;ratioP2
69185;SDS011;56298;49.246;9.410;2023-08-30T00:02:06;12.17;;;8.90;;
69185;SDS011;56298;49.246;9.410;2023-08-30T00:04:33;15.68;;;9.82;;
69185;SDS011;56298;49.246;9.410;2023-08-30T00:06:58;15.53;;;10.80;;
69185;SDS011;56298;49.246;9.410;2023-08-30T00:09:23;17.52;;;11.57;;
69185;SDS011;56298;49.246;9.410;2023-08-30T00:11:50;11.73;;;8.48;;
69185;SDS011;56298;49.246;9.410;2023-08-30T00:14:15;12.63;;;8.43;;
69185;SDS011;56298;49.246;9.410;2023-08-30T00:16:40;11.20;;;7.63;;
69185;SDS011;56298;49.246;9.410;2023-08-30T00:19:06;19.00;;;8.03;;
69185;SDS011;56298;49.246;9.410;2023-08-30T00:21:31;11.77;;;7.47;;
69185;SDS011;56298;49.246;9.410;2023-08-30T00:23:56;19.13;;;8.80;;
69185;SDS011;56298;49.246;9.410;2023-08-30T00:26:21;21.93;;;9.30;;
69185;SDS011;56298;49.246;9.410;2023-08-30T00:28:47;38.40;;;9.70;;
69185;SDS011;56298;49.246;9.410;2023-08-30T00:31:12;65.00;;;10.90;;
69185;SDS011;56298;49.246;9.410;2023-08-30T00:33:37;39.73;;;9.93;;
69185;SDS011;56298;49.246;9.410;2023-08-30T00:36:04;31.50;;;9.13;;
69185;SDS011;56298;49.246;9.410;2023-08-30T00:38:30;20.25;;;8.43;;
69185;SDS011;56298;49.246;9.410;2023-08-30T00:40:57;13.55;;;8.65;;
69185;SDS011;56298;49.246;9.410;2023-08-30T00:43:23;13.20;;;8.93;;
69185;SDS011;56298;49.246;9.410;2023-08-30T00:45:48;13.53;;;8.70;;
69185;SDS011;56298;49.246;9.410;2023-08-30T00:48:14;14.37;;;8.03;;
69185;SDS011;56298;49.246;9.410;2023-08-30T00:50:43;12.13;;;8.63;;
69185;SDS011;56298;49.246;9.410;2023-08-30T00:53:09;53.47;;;10.00;;
69185;SDS011;56298;49.246;9.410;2023-08-30T00:55:35;27.20;;;8.77;;
69185;SDS011;56298;49.246;9.410;2023-08-30T00:58:02;58.47;;;9.97;;
69185;SDS011;56298;49.246;9.410;2023-08-30T01:00:28;33.13;;;9.05;;
69185;SDS011;56298;49.246;9.410;2023-08-30T01:02:55;62.27;;;9.70;;
69185;SDS011;56298;49.246;9.410;2023-08-30T01:05:21;61.37;;;8.67;;
69185;SDS011;56298;49.246;9.410;2023-08-30T01:07:46;63.10;;;9.57;;
69185;SDS011;56298;49.246;9.410;2023-08-30T01:10:11;45.03;;;8.60;;
69185;SDS011;56298;49.246;9.410;2023-08-30T01:12:39;56.67;;;9.63;;
69185;SDS011;56298;49.246;9.410;2023-08-30T01:15:09;116.85;;;11.63;;
69185;SDS011;56298;49.246;9.410;2023-08-30T01:17:37;127.13;;;12.45;;
69185;SDS011;56298;49.246;9.410;2023-08-30T01:20:06;67.93;;;11.15;;
69185;SDS011;56298;49.246;9.410;2023-08-30T01:28:39;31.95;;;9.27;;
69185;SDS011;56298;49.246;9.410;2023-08-30T01:31:05;31.42;;;8.60;;
69185;SDS011;56298;49.246;9.410;2023-08-30T01:33:33;26.73;;;9.83;;
69185;SDS011;56298;49.246;9.410;2023-08-30T01:35:59;13.80;;;9.37;;
69185;SDS011;56298;49.246;9.410;2023-08-30T01:38:29;32.25;;;9.73;;
69185;SDS011;56298;49.246;9.410;2023-08-30T01:40:55;21.37;;;9.03;;
69185;SDS011;56298;49.246;9.410;2023-08-30T01:43:22;42.38;;;9.43;;
69185;SDS011;56298;49.246;9.410;2023-08-30T01:45:49;37.78;;;8.73;;
69185;SDS011;56298;49.246;9.410;2023-08-30T01:48:15;27.87;;;8.60;;
69185;SDS011;56298;49.246;9.410;2023-08-30T01:50:42;23.83;;;8.18;;
69185;SDS011;56298;49.246;9.410;2023-08-30T01:53:10;45.13;;;9.40;;
69185;SDS011;56298;49.246;9.410;2023-08-30T01:55:37;52.95;;;11.82;;
69185;SDS011;56298;49.246;9.410;2023-08-30T01:58:03;66.95;;;10.18;;
69185;SDS011;56298;49.246;9.410;2023-08-30T02:00:29;24.53;;;8.43;;
69185;SDS011;56298;49.246;9.410;2023-08-30T02:02:55;29.40;;;8.57;;
69185;SDS011;56298;49.246;9.410;2023-08-30T02:05:21;25.33;;;8.60;;
69185;SDS011;56298;49.246;9.410;2023-08-30T02:08:20;16.07;;;9.27;;
69185;SDS011;56298;49.246;9.410;2023-08-30T02:10:41;20.63;;;9.45;;
69185;SDS011;56298;49.246;9.410;2023-08-30T02:13:09;18.45;;;8.40;;
69185;SDS011;56298;49.246;9.410;2023-08-30T02:15:37;14.35;;;8.95;;
69185;SDS011;56298;49.246;9.410;2023-08-30T02:18:05;17.73;;;10.23;;
69185;SDS011;56298;49.246;9.410;2023-08-30T02:20:31;15.10;;;8.77;;
69185;SDS011;56298;49.246;9.410;2023-08-30T02:23:00;14.27;;;9.13;;
69185;SDS011;56298;49.246;9.410;2023-08-30T02:25:25;60.20;;;10.98;;
69185;SDS011;56298;49.246;9.410;2023-08-30T02:27:50;22.33;;;9.18;;
69185;SDS011;56298;49.246;9.410;2023-08-30T02:30:16;40.38;;;9.27;;
69185;SDS011;56298;49.246;9.410;2023-08-30T02:32:41;15.53;;;8.90;;
69185;SDS011;56298;49.246;9.410;2023-08-30T02:35:06;18.13;;;9.90;;
69185;SDS011;56298;49.246;9.410;2023-08-30T02:37:32;36.65;;;10.13;;
69185;SDS011;56298;49.246;9.410;2023-08-30T02:39:57;18.77;;;9.30;;
69185;SDS011;56298;49.246;9.410;2023-08-30T02:42:22;26.17;;;9.65;;
69185;SDS011;56298;49.246;9.410;2023-08-30T02:44:48;22.40;;;8.65;;
69185;SDS011;56298;49.246;9.410;2023-08-30T02:47:13;27.87;;;9.47;;
69185;SDS011;56298;49.246;9.410;2023-08-30T02:49:38;32.00;;;8.23;;
69185;SDS011;56298;49.246;9.410;2023-08-30T02:52:04;29.27;;;9.13;;
69185;SDS011;56298;49.246;9.410;2023-08-30T02:54:29;38.27;;;9.80;;
69185;SDS011;56298;49.246;9.410;2023-08-30T02:56:54;78.50;;;11.33;;
69185;SDS011;56298;49.246;9.410;2023-08-30T02:59:20;36.57;;;8.47;;
69185;SDS011;56298;49.246;9.410;2023-08-30T03:01:45;23.50;;;8.50;;
69185;SDS011;56298;49.246;9.410;2023-08-30T03:04:10;30.47;;;8.83;;
69185;SDS011;56298;49.246;9.410;2023-08-30T03:06:35;18.60;;;8.77;;
69185;SDS011;56298;49.246;9.410;2023-08-30T03:09:01;15.43;;;8.20;;
69185;SDS011;56298;49.246;9.410;2023-08-30T03:11:28;13.03;;;8.30;;
69185;SDS011;56298;49.246;9.410;2023-08-30T03:13:53;12.17;;;8.20;;
69185;SDS011;56298;49.246;9.410;2023-08-30T03:16:19;12.48;;;8.18;;
69185;SDS011;56298;49.246;9.410;2023-08-30T03:18:44;13.37;;;8.17;;
69185;SDS011;56298;49.246;9.410;2023-08-30T03:21:10;15.03;;;8.10;;
69185;SDS011;56298;49.246;9.410;2023-08-30T03:23:36;30.70;;;8.77;;
69185;SDS011;56298;49.246;9.410;2023-08-30T03:26:11;15.30;;;7.63;;
69185;SDS011;56298;49.246;9.410;2023-08-30T03:28:38;12.32;;;8.10;;
69185;SDS011;56298;49.246;9.410;2023-08-30T03:31:17;12.50;;;7.95;;
69185;SDS011;56298;49.246;9.410;2023-08-30T03:33:44;16.00;;;8.10;;
69185;SDS011;56298;49.246;9.410;2023-08-30T03:36:10;14.97;;;8.23;;
69185;SDS011;56298;49.246;9.410;2023-08-30T03:38:36;13.98;;;8.27;;
69185;SDS011;56298;49.246;9.410;2023-08-30T03:41:02;22.63;;;8.50;;
69185;SDS011;56298;49.246;9.410;2023-08-30T03:43:28;33.43;;;8.60;;
69185;SDS011;56298;49.246;9.410;2023-08-30T03:45:54;22.07;;;8.17;;
69185;SDS011;56298;49.246;9.410;2023-08-30T03:48:19;39.27;;;9.70;;
69185;SDS011;56298;49.246;9.410;2023-08-30T03:50:44;23.53;;;8.60;;
69185;SDS011;56298;49.246;9.410;2023-08-30T03:53:10;25.70;;;9.17;;
69185;SDS011;56298;49.246;9.410;2023-08-30T03:55:35;26.30;;;8.80;;
69185;SDS011;56298;49.246;9.410;2023-08-30T03:58:00;59.43;;;10.50;;
69185;SDS011;56298;49.246;9.410;2023-08-30T04:00:25;53.07;;;10.80;;
69185;SDS011;56298;49.246;9.410;2023-08-30T04:02:51;139.48;;;14.15;;
69185;SDS011;56298;49.246;9.410;2023-08-30T04:05:16;26.83;;;8.80;;
69185;SDS011;56298;49.246;9.410;2023-08-30T04:07:41;30.93;;;9.37;;
69185;SDS011;56298;49.246;9.410;2023-08-30T04:10:06;28.67;;;9.77;;
69185;SDS011;56298;49.246;9.410;2023-08-30T04:12:33;25.27;;;9.40;;
69185;SDS011;56298;49.246;9.410;2023-08-30T04:14:59;39.47;;;9.82;;
69185;SDS011;56298;49.246;9.410;2023-08-30T04:17:25;18.35;;;9.10;;
69185;SDS011;56298;49.246;9.410;2023-08-30T04:19:51;20.83;;;8.80;;
69185;SDS011;56298;49.246;9.410;2023-08-30T04:22:17;44.35;;;10.60;;
69185;SDS011;56298;49.246;9.410;2023-08-30T04:24:43;14.50;;;9.02;;
69185;SDS011;56298;49.246;9.410;2023-08-30T04:27:08;26.83;;;9.87;;
69185;SDS011;56298;49.246;9.410;2023-08-30T04:29:33;19.23;;;9.57;;
69185;SDS011;56298;49.246;9.410;2023-08-30T04:31:58;16.90;;;8.77;;
69185;SDS011;56298;49.246;9.410;2023-08-30T04:34:24;17.73;;;8.67;;
69185;SDS011;56298;49.246;9.410;2023-08-30T04:36:49;29.47;;;9.70;;
69185;SDS011;56298;49.246;9.410;2023-08-30T04:39:14;26.02;;;9.38;;
69185;SDS011;56298;49.246;9.410;2023-08-30T04:41:39;12.53;;;8.43;;
69185;SDS011;56298;49.246;9.410;2023-08-30T04:44:05;16.23;;;8.60;;
69185;SDS011;56298;49.246;9.410;2023-08-30T04:46:30;15.90;;;8.53;;
69185;SDS011;56298;49.246;9.410;2023-08-30T04:48:55;14.83;;;8.53;;
69185;SDS011;56298;49.246;9.410;2023-08-30T04:51:20;12.40;;;8.20;;
69185;SDS011;56298;49.246;9.410;2023-08-30T04:53:45;14.17;;;8.43;;
69185;SDS011;56298;49.246;9.410;2023-08-30T04:56:11;68.73;;;11.47;;
69185;SDS011;56298;49.246;9.410;2023-08-30T04:58:38;15.02;;;8.57;;
69185;SDS011;56298;49.246;9.410;2023-08-30T05:01:04;14.13;;;8.18;;
69185;SDS011;56298;49.246;9.410;2023-08-30T05:03:29;14.53;;;8.37;;
69185;SDS011;56298;49.246;9.410;2023-08-30T05:05:55;13.87;;;8.37;;
69185;SDS011;56298;49.246;9.410;2023-08-30T05:08:20;15.83;;;8.53;;
69185;SDS011;56298;49.246;9.410;2023-08-30T05:10:45;13.30;;;8.43;;
69185;SDS011;56298;49.246;9.410;2023-08-30T05:13:11;15.03;;;8.40;;
69185;SDS011;56298;49.246;9.410;2023-08-30T05:15:36;11.63;;;7.87;;
69185;SDS011;56298;49.246;9.410;2023-08-30T05:18:02;14.17;;;8.70;;
69185;SDS011;56298;49.246;9.410;2023-08-30T05:20:28;13.27;;;8.13;;
69185;SDS011;56298;49.246;9.410;2023-08-30T05:22:53;11.60;;;7.80;;
69185;SDS011;56298;49.246;9.410;2023-08-30T05:25:18;13.07;;;8.47;;
69185;SDS011;56298;49.246;9.410;2023-08-30T05:27:43;12.35;;;8.20;;
69185;SDS011;56298;49.246;9.410;2023-08-30T05:30:09;12.82;;;7.63;;
69185;SDS011;56298;49.246;9.410;2023-08-30T05:32:35;13.52;;;8.38;;
69185;SDS011;56298;49.246;9.410;2023-08-30T05:35:00;13.03;;;7.90;;
69185;SDS011;56298;49.246;9.410;2023-08-30T05:37:25;11.57;;;7.80;;
69185;SDS011;56298;49.246;9.410;2023-08-30T05:39:50;12.33;;;8.00;;
69185;SDS011;56298;49.246;9.410;2023-08-30T05:42:16;14.55;;;8.60;;
69185;SDS011;56298;49.246;9.410;2023-08-30T05:44:41;13.03;;;8.33;;
69185;SDS011;56298;49.246;9.410;2023-08-30T05:47:06;11.30;;;7.77;;
69185;SDS011;56298;49.246;9.410;2023-08-30T05:49:31;11.93;;;8.10;;
69185;SDS011;56298;49.246;9.410;2023-08-30T05:51:57;12.90;;;8.10;;
69185;SDS011;56298;49.246;9.410;2023-08-30T05:54:22;11.97;;;8.37;;
69185;SDS011;56298;49.246;9.410;2023-08-30T05:56:47;13.13;;;8.10;;
69185;SDS011;56298;49.246;9.410;2023-08-30T05:59:12;12.33;;;7.80;;
69185;SDS011;56298;49.246;9.410;2023-08-30T06:01:38;12.60;;;7.87;;
69185;SDS011;56298;49.246;9.410;2023-08-30T06:04:03;13.77;;;8.27;;
69185;SDS011;56298;49.246;9.410;2023-08-30T06:06:29;11.83;;;7.80;;
69185;SDS011;56298;49.246;9.410;2023-08-30T06:08:54;11.73;;;7.72;;
69185;SDS011;56298;49.246;9.410;2023-08-30T06:11:20;12.17;;;7.77;;
69185;SDS011;56298;49.246;9.410;2023-08-30T06:13:45;13.70;;;8.10;;
69185;SDS011;56298;49.246;9.410;2023-08-30T06:16:10;12.10;;;8.13;;
69185;SDS011;56298;49.246;9.410;2023-08-30T06:18:35;12.67;;;8.27;;
69185;SDS011;56298;49.246;9.410;2023-08-30T06:21:02;13.57;;;7.50;;
69185;SDS011;56298;49.246;9.410;2023-08-30T06:23:28;12.15;;;7.75;;
69185;SDS011;56298;49.246;9.410;2023-08-30T06:25:54;11.80;;;7.53;;
69185;SDS011;56298;49.246;9.410;2023-08-30T06:28:21;11.68;;;7.93;;
69185;SDS011;56298;49.246;9.410;2023-08-30T06:30:46;11.20;;;7.30;;
69185;SDS011;56298;49.246;9.410;2023-08-30T06:33:11;11.13;;;7.20;;
69185;SDS011;56298;49.246;9.410;2023-08-30T06:35:37;10.00;;;7.30;;
69185;SDS011;56298;49.246;9.410;2023-08-30T06:38:04;11.88;;;7.40;;
69185;SDS011;56298;49.246;9.410;2023-08-30T06:40:29;10.70;;;7.57;;
69185;SDS011;56298;49.246;9.410;2023-08-30T06:42:55;9.87;;;7.00;;
69185;SDS011;56298;49.246;9.410;2023-08-30T06:45:20;10.60;;;6.80;;
69185;SDS011;56298;49.246;9.410;2023-08-30T06:47:45;10.40;;;6.83;;
69185;SDS011;56298;49.246;9.410;2023-08-30T06:50:10;10.77;;;7.07;;
69185;SDS011;56298;49.246;9.410;2023-08-30T06:52:36;11.75;;;6.60;;
69185;SDS011;56298;49.246;9.410;2023-08-30T06:55:01;9.98;;;6.70;;
69185;SDS011;56298;49.246;9.410;2023-08-30T06:57:27;9.53;;;6.50;;
69185;SDS011;56298;49.246;9.410;2023-08-30T06:59:52;10.00;;;6.50;;
69185;SDS011;56298;49.246;9.410;2023-08-30T07:02:18;9.50;;;6.50;;
69185;SDS011;56298;49.246;9.410;2023-08-30T07:04:43;9.97;;;6.40;;
69185;SDS011;56298;49.246;9.410;2023-08-30T07:07:08;11.67;;;5.70;;
69185;SDS011;56298;49.246;9.410;2023-08-30T07:09:34;9.40;;;6.10;;
69185;SDS011;56298;49.246;9.410;2023-08-30T07:11:59;9.90;;;6.13;;
69185;SDS011;56298;49.246;9.410;2023-08-30T07:14:24;9.73;;;5.93;;
69185;SDS011;56298;49.246;9.410;2023-08-30T07:16:51;8.70;;;5.90;;
69185;SDS011;56298;49.246;9.410;2023-08-30T07:19:16;9.38;;;6.07;;
69185;SDS011;56298;49.246;9.410;2023-08-30T07:21:42;8.50;;;5.90;;
69185;SDS011;56298;49.246;9.410;2023-08-30T07:24:07;8.97;;;5.70;;
69185;SDS011;56298;49.246;9.410;2023-08-30T07:26:33;8.83;;;5.70;;
69185;SDS011;56298;49.246;9.410;2023-08-30T07:28:59;8.88;;;5.75;;
69185;SDS011;56298;49.246;9.410;2023-08-30T07:31:24;9.40;;;5.83;;
69185;SDS011;56298;49.246;9.410;2023-08-30T07:33:49;9.32;;;5.80;;
69185;SDS011;56298;49.246;9.410;2023-08-30T07:36:14;10.87;;;5.77;;
69185;SDS011;56298;49.246;9.410;2023-08-30T07:38:40;8.00;;;5.55;;
69185;SDS011;56298;49.246;9.410;2023-08-30T07:41:05;8.75;;;5.43;;
69185;SDS011;56298;49.246;9.410;2023-08-30T07:43:30;7.63;;;5.07;;
69185;SDS011;56298;49.246;9.410;2023-08-30T07:45:56;8.18;;;5.18;;
69185;SDS011;56298;49.246;9.410;2023-08-30T07:48:21;7.95;;;5.32;;
69185;SDS011;56298;49.246;9.410;2023-08-30T07:50:47;8.00;;;4.67;;
69185;SDS011;56298;49.246;9.410;2023-08-30T07:53:12;6.83;;;4.43;;
69185;SDS011;56298;49.246;9.410;2023-08-30T07:55:37;6.33;;;4.13;;
69185;SDS011;56298;49.246;9.410;2023-08-30T07:58:03;7.63;;;4.33;;
69185;SDS011;56298;49.246;9.410;2023-08-30T08:00:28;7.50;;;4.57;;
69185;SDS011;56298;49.246;9.410;2023-08-30T08:02:54;7.40;;;4.50;;
69185;SDS011;56298;49.246;9.410;2023-08-30T08:05:19;7.17;;;4.10;;
69185;SDS011;56298;49.246;9.410;2023-08-30T08:07:44;7.40;;;4.00;;
69185;SDS011;56298;49.246;9.410;2023-08-30T08:10:10;7.63;;;4.10;;
69185;SDS011;56298;49.246;9.410;2023-08-30T08:12:35;7.30;;;3.97;;
69185;SDS011;56298;49.246;9.410;2023-08-30T08:15:01;6.00;;;3.77;;
69185;SDS011;56298;49.246;9.410;2023-08-30T08:17:26;6.00;;;4.10;;
69185;SDS011;56298;49.246;9.410;2023-08-30T08:19:52;7.18;;;4.05;;
69185;SDS011;56298;49.246;9.410;2023-08-30T08:22:17;8.43;;;4.40;;
69185;SDS011;56298;49.246;9.410;2023-08-30T08:24:42;7.63;;;4.10;;
69185;SDS011;56298;49.246;9.410;2023-08-30T08:27:08;6.50;;;4.22;;
69185;SDS011;56298;49.246;9.410;2023-08-30T08:29:34;7.93;;;4.40;;
69185;SDS011;56298;49.246;9.410;2023-08-30T08:31:59;6.60;;;4.30;;
69185;SDS011;56298;49.246;9.410;2023-08-30T08:34:24;7.30;;;4.00;;
69185;SDS011;56298;49.246;9.410;2023-08-30T08:36:50;7.28;;;4.50;;
69185;SDS011;56298;49.246;9.410;2023-08-30T08:39:15;6.87;;;4.20;;
69185;SDS011;56298;49.246;9.410;2023-08-30T08:41:42;7.00;;;4.00;;
69185;SDS011;56298;49.246;9.410;2023-08-30T08:44:08;6.40;;;3.53;;
69185;SDS011;56298;49.246;9.410;2023-08-30T08:46:35;7.30;;;4.10;;
69185;SDS011;56298;49.246;9.410;2023-08-30T08:49:04;6.28;;;3.92;;
69185;SDS011;56298;49.246;9.410;2023-08-30T08:51:35;6.15;;;3.70;;
69185;SDS011;56298;49.246;9.410;2023-08-30T08:54:02;6.95;;;3.50;;
69185;SDS011;56298;49.246;9.410;2023-08-30T08:56:30;5.40;;;3.15;;
69185;SDS011;56298;49.246;9.410;2023-08-30T08:58:56;7.47;;;3.50;;
69185;SDS011;56298;49.246;9.410;2023-08-30T09:01:21;6.03;;;3.30;;
69185;SDS011;56298;49.246;9.410;2023-08-30T09:03:47;6.83;;;3.60;;
69185;SDS011;56298;49.246;9.410;2023-08-30T09:06:13;5.78;;;3.00;;
69185;SDS011;56298;49.246;9.410;2023-08-30T09:08:40;5.20;;;3.00;;
69185;SDS011;56298;49.246;9.410;2023-08-30T09:11:05;5.40;;;2.87;;
69185;SDS011;56298;49.246;9.410;2023-08-30T09:13:30;6.10;;;3.50;;
69185;SDS011;56298;49.246;9.410;2023-08-30T09:15:56;8.90;;;3.20;;
69185;SDS011;56298;49.246;9.410;2023-08-30T09:18:21;7.93;;;3.30;;
69185;SDS011;56298;49.246;9.410;2023-08-30T09:20:46;7.87;;;3.03;;
69185;SDS011;56298;49.246;9.410;2023-08-30T09:23:18;7.72;;;3.10;;
69185;SDS011;56298;49.246;9.410;2023-08-30T09:25:46;6.15;;;2.90;;
69185;SDS011;56298;49.246;9.410;2023-08-30T09:28:19;6.20;;;2.92;;
69185;SDS011;56298;49.246;9.410;2023-08-30T09:30:51;5.60;;;2.90;;
69185;SDS011;56298;49.246;9.410;2023-08-30T09:33:23;5.80;;;3.37;;
69185;SDS011;56298;49.246;9.410;2023-08-30T09:35:54;6.10;;;3.53;;
69185;SDS011;56298;49.246;9.410;2023-08-30T09:38:19;5.30;;;2.93;;
69185;SDS011;56298;49.246;9.410;2023-08-30T09:40:45;7.50;;;3.50;;
69185;SDS011;56298;49.246;9.410;2023-08-30T09:43:11;5.55;;;2.83;;
69185;SDS011;56298;49.246;9.410;2023-08-30T09:45:37;5.60;;;3.25;;
69185;SDS011;56298;49.246;9.410;2023-08-30T09:48:02;5.80;;;2.73;;
69185;SDS011;56298;49.246;9.410;2023-08-30T09:50:30;5.43;;;2.70;;
69185;SDS011;56298;49.246;9.410;2023-08-30T09:52:59;7.23;;;3.50;;
69185;SDS011;56298;49.246;9.410;2023-08-30T09:55:28;5.30;;;2.80;;
69185;SDS011;56298;49.246;9.410;2023-08-30T09:57:54;4.80;;;2.70;;
69185;SDS011;56298;49.246;9.410;2023-08-30T10:00:20;5.60;;;2.80;;
69185;SDS011;56298;49.246;9.410;2023-08-30T10:02:45;6.03;;;2.92;;
69185;SDS011;56298;49.246;9.410;2023-08-30T10:05:11;6.67;;;3.33;;
69185;SDS011;56298;49.246;9.410;2023-08-30T10:07:38;5.47;;;2.95;;
69185;SDS011;56298;49.246;9.410;2023-08-30T10:10:03;5.50;;;3.20;;
69185;SDS011;56298;49.246;9.410;2023-08-30T10:12:32;6.20;;;3.30;;
69185;SDS011;56298;49.246;9.410;2023-08-30T10:14:57;6.00;;;3.30;;
69185;SDS011;56298;49.246;9.410;2023-08-30T10:17:23;4.90;;;2.70;;
69185;SDS011;56298;49.246;9.410;2023-08-30T10:19:52;5.88;;;3.00;;
69185;SDS011;56298;49.246;9.410;2023-08-30T10:22:18;5.63;;;3.03;;
69185;SDS011;56298;49.246;9.410;2023-08-30T10:24:56;6.40;;;3.00;;
69185;SDS011;56298;49.246;9.410;2023-08-30T10:27:26;6.18;;;3.08;;
69185;SDS011;56298;49.246;9.410;2023-08-30T10:29:52;5.80;;;2.80;;
69185;SDS011;56298;49.246;9.410;2023-08-30T10:32:19;5.57;;;3.13;;
69185;SDS011;56298;49.246;9.410;2023-08-30T10:34:47;5.43;;;2.92;;
69185;SDS011;56298;49.246;9.410;2023-08-30T10:37:21;5.93;;;3.25;;
69185;SDS011;56298;49.246;9.410;2023-08-30T10:39:47;5.85;;;2.88;;
69185;SDS011;56298;49.246;9.410;2023-08-30T10:42:13;6.07;;;2.87;;
69185;SDS011;56298;49.246;9.410;2023-08-30T10:44:50;5.47;;;3.10;;
69185;SDS011;56298;49.246;9.410;2023-08-30T10:47:23;5.65;;;3.10;;
69185;SDS011;56298;49.246;9.410;2023-08-30T10:49:50;5.00;;;2.65;;
69185;SDS011;56298;49.246;9.410;2023-08-30T10:52:19;5.90;;;2.83;;
69185;SDS011;56298;49.246;9.410;2023-08-30T10:54:44;5.67;;;2.70;;
69185;SDS011;56298;49.246;9.410;2023-08-30T10:57:13;5.70;;;2.80;;
69185;SDS011;56298;49.246;9.410;2023-08-30T10:59:40;5.65;;;2.90;;
69185;SDS011;56298;49.246;9.410;2023-08-30T11:02:08;5.63;;;2.80;;
69185;SDS011;56298;49.246;9.410;2023-08-30T11:04:38;6.63;;;2.97;;
69185;SDS011;56298;49.246;9.410;2023-08-30T11:07:05;4.90;;;2.57;;
69185;SDS011;56298;49.246;9.410;2023-08-30T11:09:30;7.57;;;2.70;;
69185;SDS011;56298;49.246;9.410;2023-08-30T11:11:55;6.97;;;3.10;;
69185;SDS011;56298;49.246;9.410;2023-08-30T11:14:21;10.93;;;2.92;;
69185;SDS011;56298;49.246;9.410;2023-08-30T11:16:46;5.57;;;2.70;;
69185;SDS011;56298;49.246;9.410;2023-08-30T11:19:12;6.30;;;3.00;;
69185;SDS011;56298;49.246;9.410;2023-08-30T11:21:38;5.67;;;2.67;;
69185;SDS011;56298;49.246;9.410;2023-08-30T11:24:04;5.00;;;2.28;;
69185;SDS011;56298;49.246;9.410;2023-08-30T11:26:31;5.07;;;2.47;;
69185;SDS011;56298;49.246;9.410;2023-08-30T11:28:56;5.50;;;2.70;;
69185;SDS011;56298;49.246;9.410;2023-08-30T11:31:22;5.40;;;2.33;;
69185;SDS011;56298;49.246;9.410;2023-08-30T11:33:52;6.07;;;2.50;;
69185;SDS011;56298;49.246;9.410;2023-08-30T11:36:20;4.97;;;2.10;;
69185;SDS011;56298;49.246;9.410;2023-08-30T11:38:46;4.30;;;2.33;;
69185;SDS011;56298;49.246;9.410;2023-08-30T11:41:11;4.50;;;2.10;;
69185;SDS011;56298;49.246;9.410;2023-08-30T11:43:37;4.97;;;2.63;;
69185;SDS011;56298;49.246;9.410;2023-08-30T11:46:03;5.57;;;2.50;;
69185;SDS011;56298;49.246;9.410;2023-08-30T11:48:28;5.30;;;2.50;;
69185;SDS011;56298;49.246;9.410;2023-08-30T11:50:54;5.15;;;2.50;;
69185;SDS011;56298;49.246;9.410;2023-08-30T11:53:19;4.90;;;2.40;;
69185;SDS011;56298;49.246;9.410;2023-08-30T11:55:45;7.00;;;2.23;;
69185;SDS011;56298;49.246;9.410;2023-08-30T11:58:11;5.65;;;2.40;;
69185;SDS011;56298;49.246;9.410;2023-08-30T12:00:36;5.63;;;2.33;;
69185;SDS011;56298;49.246;9.410;2023-08-30T12:03:03;5.20;;;2.00;;
69185;SDS011;56298;49.246;9.410;2023-08-30T12:05:30;5.07;;;2.03;;
69185;SDS011;56298;49.246;9.410;2023-08-30T12:07:58;4.25;;;2.00;;
69185;SDS011;56298;49.246;9.410;2023-08-30T12:10:24;4.65;;;2.20;;
69185;SDS011;56298;49.246;9.410;2023-08-30T12:12:50;5.63;;;2.17;;
69185;SDS011;56298;49.246;9.410;2023-08-30T12:15:15;4.40;;;1.90;;
69185;SDS011;56298;49.246;9.410;2023-08-30T12:17:41;4.70;;;1.65;;
69185;SDS011;56298;49.246;9.410;2023-08-30T12:20:14;4.07;;;1.80;;
69185;SDS011;56298;49.246;9.410;2023-08-30T12:22:41;4.63;;;1.60;;
69185;SDS011;56298;49.246;9.410;2023-08-30T12:25:16;4.13;;;1.83;;
69185;SDS011;56298;49.246;9.410;2023-08-30T12:27:42;4.32;;;1.90;;
69185;SDS011;56298;49.246;9.410;2023-08-30T12:30:08;4.30;;;1.97;;
69185;SDS011;56298;49.246;9.410;2023-08-30T12:32:33;4.30;;;1.93;;
69185;SDS011;56298;49.246;9.410;2023-08-30T12:34:59;5.07;;;2.13;;
69185;SDS011;56298;49.246;9.410;2023-08-30T12:37:24;3.70;;;1.70;;
69185;SDS011;56298;49.246;9.410;2023-08-30T12:39:49;5.30;;;1.90;;
69185;SDS011;56298;49.246;9.410;2023-08-30T12:42:14;4.80;;;1.90;;
69185;SDS011;56298;49.246;9.410;2023-08-30T12:44:40;5.10;;;2.00;;
69185;SDS011;56298;49.246;9.410;2023-08-30T12:47:05;5.13;;;1.60;;
69185;SDS011;56298;49.246;9.410;2023-08-30T12:49:30;4.70;;;1.90;;
69185;SDS011;56298;49.246;9.410;2023-08-30T12:51:55;5.67;;;1.90;;
69185;SDS011;56298;49.246;9.410;2023-08-30T12:54:21;4.30;;;1.70;;
69185;SDS011;56298;49.246;9.410;2023-08-30T12:56:46;5.00;;;1.90;;
69185;SDS011;56298;49.246;9.410;2023-08-30T12:59:11;4.33;;;1.40;;
69185;SDS011;56298;49.246;9.410;2023-08-30T13:01:37;3.93;;;1.50;;
69185;SDS011;56298;49.246;9.410;2023-08-30T13:04:02;4.10;;;1.70;;
69185;SDS011;56298;49.246;9.410;2023-08-30T13:06:28;4.80;;;1.63;;
69185;SDS011;56298;49.246;9.410;2023-08-30T13:08:53;4.80;;;1.83;;
69185;SDS011;56298;49.246;9.410;2023-08-30T13:11:19;3.73;;;1.80;;
69185;SDS011;56298;49.246;9.410;2023-08-30T13:13:44;3.87;;;1.50;;
69185;SDS011;56298;49.246;9.410;2023-08-30T13:16:09;4.37;;;1.70;;
69185;SDS011;56298;49.246;9.410;2023-08-30T13:18:34;5.20;;;1.50;;
69185;SDS011;56298;49.246;9.410;2023-08-30T13:21:00;4.97;;;1.70;;
69185;SDS011;56298;49.246;9.410;2023-08-30T13:23:25;4.57;;;1.70;;
69185;SDS011;56298;49.246;9.410;2023-08-30T13:25:50;4.73;;;1.70;;
69185;SDS011;56298;49.246;9.410;2023-08-30T13:28:15;4.47;;;1.50;;
69185;SDS011;56298;49.246;9.410;2023-08-30T13:30:44;3.73;;;1.67;;
69185;SDS011;56298;49.246;9.410;2023-08-30T13:33:10;4.90;;;1.70;;
69185;SDS011;56298;49.246;9.410;2023-08-30T13:35:38;4.78;;;1.55;;
69185;SDS011;56298;49.246;9.410;2023-08-30T13:38:04;4.68;;;1.75;;
69185;SDS011;56298;49.246;9.410;2023-08-30T13:40:29;5.03;;;1.80;;
69185;SDS011;56298;49.246;9.410;2023-08-30T13:42:54;10.40;;;1.50;;
69185;SDS011;56298;49.246;9.410;2023-08-30T13:45:19;3.83;;;1.30;;
69185;SDS011;56298;49.246;9.410;2023-08-30T13:47:45;4.20;;;1.57;;
69185;SDS011;56298;49.246;9.410;2023-08-30T13:50:11;4.38;;;1.50;;
69185;SDS011;56298;49.246;9.410;2023-08-30T13:52:37;3.60;;;1.50;;
69185;SDS011;56298;49.246;9.410;2023-08-30T13:55:02;4.60;;;1.60;;
69185;SDS011;56298;49.246;9.410;2023-08-30T13:57:27;5.17;;;1.47;;
69185;SDS011;56298;49.246;9.410;2023-08-30T13:59:53;3.77;;;1.50;;
69185;SDS011;56298;49.246;9.410;2023-08-30T14:02:18;4.00;;;1.33;;
69185;SDS011;56298;49.246;9.410;2023-08-30T14:04:44;4.25;;;1.38;;
69185;SDS011;56298;49.246;9.410;2023-08-30T14:07:09;4.43;;;1.30;;
69185;SDS011;56298;49.246;9.410;2023-08-30T14:09:36;4.55;;;1.40;;
69185;SDS011;56298;49.246;9.410;2023-08-30T14:12:02;4.60;;;1.53;;
69185;SDS011;56298;49.246;9.410;2023-08-30T14:14:28;3.70;;;1.50;;
69185;SDS011;56298;49.246;9.410;2023-08-30T14:16:54;4.37;;;1.40;;
69185;SDS011;56298;49.246;9.410;2023-08-30T14:19:19;4.10;;;1.30;;
69185;SDS011;56298;49.246;9.410;2023-08-30T14:21:44;5.22;;;1.65;;
69185;SDS011;56298;49.246;9.410;2023-08-30T14:24:10;4.55;;;1.58;;
69185;SDS011;56298;49.246;9.410;2023-08-30T14:26:36;3.63;;;1.40;;
69185;SDS011;56298;49.246;9.410;2023-08-30T14:29:01;3.50;;;1.30;;
69185;SDS011;56298;49.246;9.410;2023-08-30T14:31:26;4.37;;;1.63;;
69185;SDS011;56298;49.246;9.410;2023-08-30T14:33:53;3.67;;;1.40;;
69185;SDS011;56298;49.246;9.410;2023-08-30T14:36:20;3.85;;;1.30;;
69185;SDS011;56298;49.246;9.410;2023-08-30T14:38:45;4.30;;;1.60;;
69185;SDS011;56298;49.246;9.410;2023-08-30T14:41:10;5.00;;;1.50;;